Time;durP1;ratioP1;P1;durP2;ratioP2;P2;SDS_P1;SDS_P2;PMS_P1;PMS_P2;Temp;Humidity;BMP_temperature;BMP_pressure;BME280_temperature;BME280_humidity;BME280_pressure;Samples;Min_cycle;Max_cycle;Signal;HPM_P1;HPM_P2
2021/07/16 00:00:00;;;;;;;25.65;16.55;;;;;;;20.04;77.40;99475.00;1765393;79;21795;-62
2021/07/16 00:02:26;;;;;;;24.00;13.38;;;;;;;20.04;77.50;99475.00;1764615;81;20962;-62
2021/07/16 00:04:53;;;;;;;22.20;14.25;;;;;;;20.04;77.52;99478.97;1765335;79;21569;-62
2021/07/16 00:07:20;;;;;;;21.50;13.65;;;;;;;20.01;77.42;99491.18;1777716;79;20895;-62
2021/07/16 00:09:46;;;;;;;22.85;13.15;;;;;;;19.93;77.45;99478.61;1796710;79;21511;-62
2021/07/16 00:12:14;;;;;;;22.32;15.08;;;;;;;19.89;77.62;99480.71;1772276;79;23414;-62
2021/07/16 00:14:41;;;;;;;34.80;21.17;;;;;;;19.90;77.79;99473.09;1765222;81;20961;-61
2021/07/16 00:17:08;;;;;;;27.25;17.95;;;;;;;19.93;77.89;99477.78;1765553;81;20973;-62
2021/07/16 00:19:34;;;;;;;26.33;17.50;;;;;;;19.92;77.99;99474.80;1765473;81;20946;-62
2021/07/16 00:22:01;;;;;;;25.08;16.73;;;;;;;19.92;78.05;99476.12;1769674;81;21048;-62
2021/07/16 00:24:28;;;;;;;20.82;14.25;;;;;;;19.95;78.17;99481.14;1771329;81;21497;-62
2021/07/16 00:26:55;;;;;;;25.37;15.78;;;;;;;19.95;78.20;99482.47;1770864;80;20933;-62
2021/07/16 00:29:24;;;;;;;23.12;12.88;;;;;;;19.88;78.25;99479.05;1771240;80;20985;-61
2021/07/16 00:31:50;;;;;;;24.63;12.93;;;;;;;19.97;78.28;99487.11;1770852;80;20936;-62
2021/07/16 00:34:17;;;;;;;21.93;12.98;;;;;;;19.95;78.25;99487.77;1794107;79;26684;-62
2021/07/16 00:36:44;;;;;;;23.90;12.35;;;;;;;19.94;78.37;99485.61;1802839;79;21478;-62
2021/07/16 00:39:10;;;;;;;18.45;11.57;;;;;;;19.95;78.44;99483.78;1785887;79;20977;-62
2021/07/16 00:41:37;;;;;;;23.85;10.85;;;;;;;19.92;78.42;99478.77;1770910;80;20914;-62
2021/07/16 00:44:06;;;;;;;18.27;9.95;;;;;;;19.86;78.40;99486.28;1771099;81;20969;-62
2021/07/16 00:46:33;;;;;;;16.73;9.93;;;;;;;19.83;78.46;99487.89;1770889;81;20946;-62
2021/07/16 00:49:00;;;;;;;17.90;10.00;;;;;;;19.77;78.57;99492.39;1771072;81;21901;-61
2021/07/16 00:51:26;;;;;;;16.65;10.38;;;;;;;19.74;78.62;99490.02;1771159;80;20926;-62
2021/07/16 00:53:53;;;;;;;19.70;10.13;;;;;;;19.74;78.68;99493.98;1771359;80;21404;-62
2021/07/16 00:56:20;;;;;;;22.45;8.53;;;;;;;19.70;78.71;99488.63;1771220;81;20949;-61
2021/07/16 00:58:47;;;;;;;15.45;9.33;;;;;;;19.68;78.77;99489.24;1771692;79;20958;-62
2021/07/16 01:01:14;;;;;;;12.65;8.80;;;;;;;19.67;78.88;99491.55;1771062;81;24844;-62
2021/07/16 01:03:41;;;;;;;14.18;8.65;;;;;;;19.65;78.84;99490.81;1771493;80;21020;-62
2021/07/16 01:06:07;;;;;;;;;;;;;;;19.63;78.97;99490.09;1780943;79;21025;-62
2021/07/16 01:08:34;;;;;;;13.70;8.85;;;;;;;19.62;79.19;99483.14;1787291;79;20124;-62
2021/07/16 01:11:01;;;;;;;12.75;8.18;;;;;;;19.62;79.25;99485.30;1785196;80;21028;-62
2021/07/16 01:13:28;;;;;;;18.02;9.13;;;;;;;19.65;79.35;99486.38;1792789;80;21455;-62
2021/07/16 01:15:55;;;;;;;17.12;8.80;;;;;;;19.63;79.21;99490.09;1794810;80;21548;-63
2021/07/16 01:18:23;;;;;;;10.78;7.97;;;;;;;19.60;79.19;99494.34;1794290;80;20930;-62
2021/07/16 01:20:50;;;;;;;13.62;8.50;;;;;;;19.58;79.30;99487.05;1800378;78;21033;-62
2021/07/16 01:23:23;;;;;;;23.15;8.68;;;;;;;19.58;79.45;99492.34;1800471;79;21559;-62
2021/07/16 01:25:52;;;;;;;13.78;8.33;;;;;;;19.56;79.48;99482.36;1773413;80;21087;-62
2021/07/16 01:28:19;;;;;;;12.90;8.03;;;;;;;19.60;79.52;99486.40;1796175;79;20980;-63
2021/07/16 01:30:51;;;;;;;14.70;7.92;;;;;;;19.61;79.60;99490.25;1780554;80;22200;-62
2021/07/16 01:33:19;;;;;;;12.53;7.70;;;;;;;19.58;79.59;99490.53;1797013;79;21228;-62
2021/07/16 01:35:46;;;;;;;12.50;7.85;;;;;;;19.56;79.59;99491.63;1786791;79;20992;-62
2021/07/16 01:38:13;;;;;;;14.33;8.65;;;;;;;19.56;79.67;99487.66;1796333;79;21100;-61
2021/07/16 01:40:40;;;;;;;11.12;7.37;;;;;;;19.54;79.60;99493.57;1787911;79;28248;-62
2021/07/16 01:43:10;;;;;;;11.83;7.67;;;;;;;19.50;79.74;99485.06;1738216;80;20998;-61
2021/07/16 01:45:39;;;;;;;14.30;7.65;;;;;;;19.50;79.82;99486.88;1757869;81;20990;-62
2021/07/16 01:48:15;;;;;;;14.55;7.87;;;;;;;19.48;79.87;99483.52;1762795;81;20943;-62
2021/07/16 01:50:49;;;;;;;12.68;7.35;;;;;;;19.47;79.86;99477.39;1765955;81;21898;-62
2021/07/16 01:53:20;;;;;;;12.43;7.85;;;;;;;19.49;79.96;99486.52;1765846;80;21408;-62
2021/07/16 01:55:48;;;;;;;11.43;7.75;;;;;;;19.51;79.98;99491.20;1765833;80;21549;-62
2021/07/16 01:58:15;;;;;;;10.80;7.70;;;;;;;19.48;80.00;99483.52;1762530;81;20935;-62
2021/07/16 02:00:48;;;;;;;10.50;6.92;;;;;;;19.44;79.95;99481.15;1755653;81;21010;-63
2021/07/16 02:03:18;;;;;;;10.40;7.25;;;;;;;19.42;79.99;99480.44;1746229;81;21097;-63
2021/07/16 02:05:46;;;;;;;13.05;7.22;;;;;;;19.43;80.18;99484.75;1765826;80;21535;-63
2021/07/16 02:08:18;;;;;;;14.58;8.23;;;;;;;19.45;80.29;99485.46;1766241;81;20979;-63
2021/07/16 02:10:49;;;;;;;10.28;6.42;;;;;;;19.47;80.28;99487.16;1764129;81;20966;-63
2021/07/16 02:13:17;;;;;;;11.68;6.08;;;;;;;19.41;80.14;99486.72;1765762;81;20978;-63
2021/07/16 02:15:47;;;;;;;9.88;6.75;;;;;;;19.34;80.11;99486.89;1758792;80;21086;-63
2021/07/16 02:18:16;;;;;;;11.48;7.28;;;;;;;19.26;80.22;99493.83;1758305;81;20954;-63
2021/07/16 02:20:44;;;;;;;13.80;6.72;;;;;;;19.18;80.27;99495.81;1760439;81;20989;-63
2021/07/16 02:23:15;;;;;;;9.73;6.85;;;;;;;19.18;80.55;99499.77;1767439;80;20989;-63
2021/07/16 02:25:42;;;;;;;10.35;7.37;;;;;;;19.22;80.62;99503.85;1762177;81;21057;-63
2021/07/16 02:28:14;;;;;;;15.78;7.70;;;;;;;19.25;80.59;99498.29;1761903;81;27157;-63
2021/07/16 02:30:41;;;;;;;11.93;7.62;;;;;;;19.26;80.53;99498.63;1760201;80;20982;-63
2021/07/16 02:33:08;;;;;;;;;;;;;;;19.28;80.59;99503.80;1773222;80;21570;-62
2021/07/16 02:35:34;;;;;;;;;;;;;;;19.30;80.86;99502.70;1753818;80;20111;-63
2021/07/16 02:38:04;;;;;;;11.10;6.72;;;;;;;19.30;80.97;99499.22;1789507;79;20163;-63
2021/07/16 02:40:34;;;;;;;12.00;6.22;;;;;;;19.30;80.91;99506.67;1791999;79;21090;-63
2021/07/16 02:43:04;;;;;;;11.50;7.10;;;;;;;19.33;80.85;99507.73;1778593;79;20918;-63
2021/07/16 02:45:30;;;;;;;11.00;6.40;;;;;;;19.33;80.94;99502.44;1789058;79;20942;-63
2021/07/16 02:47:58;;;;;;;9.53;6.20;;;;;;;19.36;81.00;99504.80;1779158;80;21542;-63
2021/07/16 02:50:35;;;;;;;13.10;6.70;;;;;;;19.41;80.86;99505.74;1812958;78;20895;-63
2021/07/16 02:53:02;;;;;;;7.87;6.85;;;;;;;19.42;80.92;99504.27;1802172;78;21945;-63
2021/07/16 02:55:29;;;;;;;;;;;;;;;19.48;81.02;99504.70;1814749;78;20944;-63
2021/07/16 02:57:55;;;;;;;10.98;7.12;;;;;;;19.56;81.26;99496.93;1796333;78;20449;-63
2021/07/16 03:00:26;;;;;;;12.10;7.30;;;;;;;19.64;81.16;99495.77;1793724;79;20949;-63
2021/07/16 03:02:53;;;;;;;11.95;6.80;;;;;;;19.67;80.98;99496.84;1775142;78;21508;-63
2021/07/16 03:05:24;;;;;;;10.65;6.60;;;;;;;19.75;81.14;99497.00;1774539;79;21105;-63
2021/07/16 03:07:52;;;;;;;9.60;6.90;;;;;;;19.85;81.17;99488.56;1794327;78;21629;-63
2021/07/16 03:10:26;;;;;;;13.53;6.70;;;;;;;19.99;81.18;99491.80;1774558;80;20927;-63
2021/07/16 03:12:55;;;;;;;11.70;6.40;;;;;;;20.12;81.15;99493.70;1780736;79;21664;-63
2021/07/16 03:15:24;;;;;;;12.95;6.15;;;;;;;20.21;81.05;99493.34;1765381;81;20997;-63
2021/07/16 03:17:51;;;;;;;11.60;6.72;;;;;;;20.29;80.95;99487.69;1773276;79;21531;-63
2021/07/16 03:20:23;;;;;;;14.13;6.08;;;;;;;20.41;80.91;99495.49;1771288;80;20981;-63
2021/07/16 03:22:50;;;;;;;11.68;6.60;;;;;;;20.55;80.85;99497.73;1793603;80;20911;-63
2021/07/16 03:25:19;;;;;;;12.33;6.67;;;;;;;20.61;80.59;99497.17;1795702;80;20974;-63
2021/07/16 03:27:47;;;;;;;16.02;7.30;;;;;;;20.62;80.47;99495.38;1801093;78;20973;-63
2021/07/16 03:30:24;;;;;;;11.50;5.92;;;;;;;20.70;80.65;99504.79;1785316;78;21762;-63
2021/07/16 03:32:51;;;;;;;13.00;7.00;;;;;;;21.02;80.86;99500.44;1771750;80;20990;-63
2021/07/16 03:35:19;;;;;;;11.60;7.45;;;;;;;21.51;80.73;99507.75;1795787;80;27615;-63
2021/07/16 03:37:47;;;;;;;18.23;7.58;;;;;;;22.00;80.57;99505.61;1775493;80;20977;-63
2021/07/16 03:40:17;;;;;;;19.12;7.42;;;;;;;22.53;80.18;99510.10;1794169;79;21562;-63
2021/07/16 03:42:45;;;;;;;18.85;7.92;;;;;;;22.94;79.79;99510.40;1795765;80;21535;-63
2021/07/16 03:45:14;;;;;;;18.60;7.83;;;;;;;23.42;79.53;99505.01;1801714;78;20879;-63
2021/07/16 03:47:47;;;;;;;14.95;7.25;;;;;;;23.90;79.39;99496.85;1810483;78;20900;-63
2021/07/16 03:50:18;;;;;;;12.63;7.72;;;;;;;24.54;79.58;99493.59;1770784;80;20906;-63
2021/07/16 03:52:45;;;;;;;14.33;7.28;;;;;;;25.29;79.31;99496.45;1784008;79;21001;-63
2021/07/16 03:55:13;;;;;;;14.60;7.40;;;;;;;25.90;78.80;99500.19;1804745;78;21020;-63
2021/07/16 03:57:45;;;;;;;23.80;9.08;;;;;;;26.17;77.46;99509.55;1780682;80;21490;-63
2021/07/16 04:00:16;;;;;;;19.17;7.58;;;;;;;26.46;77.21;99505.30;1789670;78;21481;-64
2021/07/16 04:02:43;;;;;;;20.70;8.40;;;;;;;26.73;76.48;99498.58;1763609;80;20966;-64
2021/07/16 04:05:11;;;;;;;13.98;6.72;;;;;;;26.99;76.04;99512.35;1803850;78;20985;-64
2021/07/16 04:07:45;;;;;;;16.90;8.00;;;;;;;27.20;75.58;99505.48;1774199;80;21092;-64
2021/07/16 04:10:09;;;;;;;14.10;7.00;;;;;;;27.55;75.32;99513.76;1803309;78;20983;-64
2021/07/16 04:12:36;;;;;;;39.88;9.13;;;;;;;27.84;74.77;99509.72;1807125;78;21119;-64
2021/07/16 04:15:04;;;;;;;47.23;9.23;;;;;;;28.09;74.09;99510.67;1766181;80;21725;-64
2021/07/16 04:17:32;;;;;;;42.88;8.48;;;;;;;28.37;73.97;99511.25;1807773;78;21020;-64
2021/07/16 04:19:59;;;;;;;19.92;7.50;;;;;;;28.75;73.59;99516.66;1813368;78;21934;-64
2021/07/16 04:22:26;;;;;;;14.23;7.30;;;;;;;29.05;72.88;99508.44;1800246;78;20954;-64
2021/07/16 04:24:53;;;;;;;20.68;7.10;;;;;;;29.38;72.51;99505.08;1784153;79;21049;-64
2021/07/16 04:27:20;;;;;;;35.13;8.00;;;;;;;29.61;71.85;99512.33;1791571;78;21034;-64
2021/07/16 04:29:47;;;;;;;46.68;9.23;;;;;;;29.86;71.54;99512.66;1807229;78;21021;-63
2021/07/16 04:32:14;;;;;;;70.08;9.83;;;;;;;30.02;70.73;99507.39;1781337;79;21456;-64
2021/07/16 04:34:42;;;;;;;76.87;12.03;;;;;;;30.19;70.39;99509.70;1787572;78;21516;-64
2021/07/16 04:37:10;;;;;;;106.80;11.63;;;;;;;30.37;69.81;99509.98;1785456;79;20981;-64
2021/07/16 04:39:37;;;;;;;95.75;11.50;;;;;;;30.78;69.92;99510.26;1770343;80;20942;-64
2021/07/16 04:42:05;;;;;;;108.15;12.33;;;;;;;31.18;69.06;99504.84;1784055;79;21542;-64
2021/07/16 04:44:31;;;;;;;109.10;12.28;;;;;;;31.58;68.92;99503.38;1780775;78;21017;-64
2021/07/16 04:46:58;;;;;;;65.70;9.88;;;;;;;32.03;68.20;99505.53;1790996;78;20989;-64
2021/07/16 04:49:25;;;;;;;59.23;10.60;;;;;;;32.30;67.29;99506.19;1780849;79;21276;-64
2021/07/16 04:51:52;;;;;;;38.98;10.45;;;;;;;32.51;67.08;99509.05;1779205;79;20979;-62
2021/07/16 04:54:19;;;;;;;57.80;9.60;;;;;;;33.06;66.08;99509.73;1778675;79;20921;-63
2021/07/16 04:56:46;;;;;;;39.45;8.75;;;;;;;33.10;64.06;99506.86;1805211;78;21077;-63
2021/07/16 04:59:13;;;;;;;25.35;8.48;;;;;;;32.58;62.97;99511.72;1773336;79;20966;-63
2021/07/16 05:01:40;;;;;;;29.32;8.25;;;;;;;32.09;63.48;99515.46;1805327;78;20978;-63
2021/07/16 05:04:07;;;;;;;44.98;9.08;;;;;;;32.45;64.62;99513.14;1787780;79;20969;-63
2021/07/16 05:06:34;;;;;;;65.78;10.58;;;;;;;32.94;63.79;99515.55;1807991;78;21581;-63
2021/07/16 05:09:02;;;;;;;81.65;11.25;;;;;;;33.17;62.63;99518.45;1793361;79;21072;-63
2021/07/16 05:11:30;;;;;;;110.78;13.80;;;;;;;33.28;62.25;99508.77;1782839;78;21578;-63
2021/07/16 05:13:57;;;;;;;104.27;13.60;;;;;;;33.38;61.41;99513.63;1784106;79;21083;-63
2021/07/16 05:16:24;;;;;;;85.05;13.10;;;;;;;33.39;61.19;99520.72;1779019;79;20995;-63
2021/07/16 05:18:51;;;;;;;54.67;9.70;;;;;;;33.47;60.86;99527.17;1804221;78;21580;-63
2021/07/16 05:21:17;;;;;;;45.40;8.15;;;;;;;33.42;59.70;99527.84;1772417;79;21054;-63
2021/07/16 05:23:48;;;;;;;33.90;9.63;;;;;;;33.01;58.53;99535.27;1802713;78;21530;-62
2021/07/16 05:26:15;;;;;;;40.67;8.70;;;;;;;32.73;59.59;99535.17;1802164;78;21091;-64
2021/07/16 05:28:44;;;;;;;57.03;9.00;;;;;;;33.03;59.73;99538.58;1792143;79;21049;-64
2021/07/16 05:31:12;;;;;;;42.45;9.53;;;;;;;33.44;59.64;99534.37;1782326;79;21008;-64
2021/07/16 05:33:39;;;;;;;42.83;8.73;;;;;;;33.81;59.25;99537.09;1778924;79;21558;-64
2021/07/16 05:36:06;;;;;;;46.15;9.13;;;;;;;34.39;59.23;99536.98;1780520;79;21006;-64
2021/07/16 05:38:34;;;;;;;38.88;7.35;;;;;;;34.73;57.98;99543.55;1781359;79;20960;-63
2021/07/16 05:41:04;;;;;;;47.10;9.13;;;;;;;34.73;57.05;99544.89;1786008;79;20951;-64
2021/07/16 05:43:34;;;;;;;66.20;11.33;;;;;;;34.65;56.47;99553.41;1780214;79;20985;-63
2021/07/16 05:46:26;;;;;;;103.72;13.30;;;;;;;34.65;56.69;99553.41;1776914;79;21084;-64
2021/07/16 05:48:55;;;;;;;53.90;8.95;;;;;;;34.90;56.65;99558.08;1711243;82;20984;-63
2021/07/16 05:51:25;;;;;;;34.38;9.40;;;;;;;35.19;55.50;99558.20;1682925;83;20960;-63
2021/07/16 05:53:54;;;;;;;37.33;9.60;;;;;;;35.15;54.63;99552.95;1707215;82;20959;-63
2021/07/16 05:56:25;;;;;;;25.70;7.40;;;;;;;35.12;54.97;99557.49;1686204;83;21020;-63
2021/07/16 05:58:54;;;;;;;31.20;7.90;;;;;;;35.44;54.82;99561.19;1674598;84;21987;-64
2021/07/16 06:01:25;;;;;;;22.90;8.15;;;;;;;36.02;54.90;99556.10;1676398;84;21010;-62
2021/07/16 06:03:58;;;;;;;24.52;7.87;;;;;;;36.36;53.88;99548.06;1679210;84;21291;-64
2021/07/16 06:06:29;;;;;;;20.55;7.95;;;;;;;36.19;52.81;99557.55;1711465;82;21044;-64
2021/07/16 06:09:00;;;;;;;22.77;8.13;;;;;;;36.02;53.06;99560.17;1690029;83;21553;-62
2021/07/16 06:11:31;;;;;;;31.33;7.33;;;;;;;36.51;53.04;99559.18;1717434;81;21168;-63
2021/07/16 06:14:01;;;;;;;24.25;7.92;;;;;;;36.77;52.05;99548.73;1705792;82;20999;-63
2021/07/16 06:16:34;;;;;;;24.80;7.37;;;;;;;36.61;50.70;99555.31;1694787;83;21078;-63
2021/07/16 06:19:04;;;;;;;25.95;7.50;;;;;;;36.35;50.85;99553.20;1706309;82;21036;-65
2021/07/16 06:21:59;;;;;;;63.02;9.95;;;;;;;36.54;51.13;99553.28;1681029;83;20977;-65
2021/07/16 06:24:28;;;;;;;62.25;9.90;;;;;;;36.82;50.37;99555.62;1646962;85;21135;-64
2021/07/16 06:26:59;;;;;;;48.95;10.32;;;;;;;36.94;49.87;99553.62;1642578;85;21707;-64
2021/07/16 06:29:28;;;;;;;26.75;7.30;;;;;;;36.95;49.39;99558.01;1640208;85;21537;-65
2021/07/16 06:33:22;;;;;;;34.53;7.40;;;;;;;36.88;48.39;99555.98;1829498;77;20954;-65
2021/07/16 06:35:54;;;;;;;26.65;7.75;;;;;;;36.69;48.44;99563.06;1801387;78;21610;-64
2021/07/16 06:38:21;;;;;;;28.40;7.22;;;;;;;36.51;48.04;99555.11;1810151;78;21017;-64
2021/07/16 06:40:47;;;;;;;29.70;7.35;;;;;;;36.48;47.99;99558.31;1815665;78;21047;-65
2021/07/16 06:43:16;;;;;;;16.50;6.33;;;;;;;36.53;47.83;99557.08;1813370;78;20958;-64
2021/07/16 06:45:42;;;;;;;23.18;5.60;;;;;;;36.97;48.01;99555.84;1808208;78;22241;-64
2021/07/16 06:48:09;;;;;;;17.60;6.03;;;;;;;37.53;47.69;99558.05;1814170;78;20891;-64
2021/07/16 06:50:36;;;;;;;16.62;6.33;;;;;;;37.85;46.92;99555.95;1812429;78;21106;-64
2021/07/16 06:53:07;;;;;;;14.53;5.65;;;;;;;38.14;46.77;99554.36;1804782;78;21227;-64
2021/07/16 06:55:34;;;;;;;19.73;6.25;;;;;;;37.69;45.37;99552.77;1814971;78;20978;-64
2021/07/16 06:58:01;;;;;;;30.50;7.22;;;;;;;37.23;45.40;99549.45;1812297;78;21499;-64
2021/07/16 07:00:27;;;;;;;17.17;6.28;;;;;;;37.03;45.30;99549.45;1811569;78;21472;-64
2021/07/16 07:02:54;;;;;;;13.98;5.70;;;;;;;37.05;45.14;99545.92;1806480;78;21109;-64
2021/07/16 07:05:24;;;;;;;22.20;6.90;;;;;;;37.10;45.11;99546.54;1806196;78;20944;-64
2021/07/16 07:07:49;;;;;;;68.50;10.38;;;;;;;37.12;44.88;99547.94;1805876;78;20910;-64
2021/07/16 07:10:16;;;;;;;21.95;7.22;;;;;;;37.06;43.99;99545.41;1806712;78;21529;-64
2021/07/16 07:12:44;;;;;;;15.93;6.30;;;;;;;36.85;44.17;99538.80;1810656;78;21224;-64
2021/07/16 07:15:13;;;;;;;18.23;6.30;;;;;;;36.67;44.21;99550.23;1743082;80;21117;-64
2021/07/16 07:19:40;;;;;;;16.95;6.30;;;;;;;36.53;43.28;99543.48;1857806;76;22802;-64
2021/07/16 07:22:07;;;;;;;19.52;6.05;;;;;;;36.32;43.68;99542.81;1807339;77;20981;-64
2021/07/16 07:24:36;;;;;;;17.00;5.35;;;;;;;36.29;43.33;99540.05;1810304;77;21090;-64
2021/07/16 07:27:04;;;;;;;13.95;5.60;;;;;;;36.41;43.21;99534.53;1813318;77;21044;-64
2021/07/16 07:29:33;;;;;;;26.35;6.85;;;;;;;35.80;42.47;99537.78;1807298;77;20953;-64
2021/07/16 07:32:01;;;;;;;14.25;6.37;;;;;;;34.64;42.40;99536.29;1814195;77;21020;-63
2021/07/16 07:34:28;;;;;;;16.60;5.70;;;;;;;33.98;42.84;99536.73;1794452;78;20915;-64
2021/07/16 07:36:55;;;;;;;21.10;6.75;;;;;;;33.43;42.95;99532.73;1817647;78;21061;-64
2021/07/16 07:39:21;;;;;;;13.68;6.28;;;;;;;32.81;43.31;99531.90;1806497;77;20938;-64
2021/07/16 07:41:49;;;;;;;18.65;6.42;;;;;;;32.56;43.70;99526.50;1814897;78;20981;-63
2021/07/16 07:44:17;;;;;;;28.65;7.08;;;;;;;32.47;43.84;99528.66;1806198;78;20887;-63
2021/07/16 07:46:45;;;;;;;16.52;6.17;;;;;;;32.30;44.19;99526.45;1814197;78;20934;-63
2021/07/16 07:49:13;;;;;;;16.67;6.53;;;;;;;32.25;44.05;99523.58;1818266;77;21207;-64
2021/07/16 07:51:43;;;;;;;96.28;10.63;;;;;;;31.89;44.37;99531.75;1807753;77;20977;-63
2021/07/16 07:54:11;;;;;;;107.20;34.35;;;;;;;31.76;44.70;99530.50;1812619;78;21029;-64
2021/07/16 07:56:38;;;;;;;32.85;13.28;;;;;;;31.78;44.97;99531.09;1819616;77;20977;-63
2021/07/16 07:59:07;;;;;;;18.05;7.20;;;;;;;31.82;45.32;99526.93;1813075;77;20917;-63
2021/07/16 08:01:36;;;;;;;21.27;7.75;;;;;;;32.16;45.50;99526.24;1805933;77;21049;-63
2021/07/16 08:04:05;;;;;;;162.82;18.48;;;;;;;32.43;45.52;99521.98;1808363;77;21001;-63
2021/07/16 08:06:31;;;;;;;24.50;8.58;;;;;;;32.59;45.52;99526.88;1814297;77;20884;-62
2021/07/16 08:08:59;;;;;;;22.35;8.58;;;;;;;32.56;45.18;99527.33;1809414;77;21072;-62
2021/07/16 08:11:31;;;;;;;28.17;8.88;;;;;;;31.81;45.14;99530.66;1804500;77;21159;-63
2021/07/16 08:14:02;;;;;;;37.38;12.85;;;;;;;31.49;45.70;99533.00;1809052;77;21052;-63
2021/07/16 08:16:29;;;;;;;19.90;8.55;;;;;;;31.48;46.31;99538.06;1816273;77;21543;-64
2021/07/16 08:18:56;;;;;;;22.00;7.92;;;;;;;31.86;46.98;99541.64;1823521;77;21036;-64
2021/07/16 08:21:24;;;;;;;34.33;14.50;;;;;;;32.40;47.03;99538.64;1811855;77;21660;-64
2021/07/16 08:23:51;;;;;;;20.00;8.28;;;;;;;32.88;47.27;99539.41;1815170;77;20974;-64
2021/07/16 08:26:19;;;;;;;25.05;8.30;;;;;;;33.21;46.78;99541.28;1820781;77;21220;-64
2021/07/16 08:28:46;;;;;;;32.70;10.55;;;;;;;33.19;46.74;99547.47;1814905;77;20964;-64
2021/07/16 08:31:13;;;;;;;37.55;8.00;;;;;;;33.40;47.18;99550.23;1815996;77;20990;-64
2021/07/16 08:33:39;;;;;;;26.80;8.15;;;;;;;33.45;46.53;99551.45;1819459;78;20938;-64
2021/07/16 08:36:06;;;;;;;19.95;7.22;;;;;;;33.16;46.23;99554.68;1819905;77;20968;-64
2021/07/16 08:38:33;;;;;;;18.75;7.67;;;;;;;32.73;46.21;99560.03;1809037;77;21053;-64
2021/07/16 08:41:00;;;;;;;20.08;7.65;;;;;;;32.15;46.42;99559.68;1804406;77;20942;-64
2021/07/16 08:43:28;;;;;;;22.17;7.50;;;;;;;31.91;46.51;99564.48;1808070;78;21567;-64
2021/07/16 08:45:55;;;;;;;20.97;7.45;;;;;;;31.62;46.33;99561.26;1804846;77;21008;-65
2021/07/16 08:48:23;;;;;;;87.02;11.45;;;;;;;31.48;46.96;99565.05;1806560;78;20993;-64
2021/07/16 08:50:52;;;;;;;25.68;7.50;;;;;;;31.49;47.03;99570.77;1802747;78;21084;-64
2021/07/16 08:53:19;;;;;;;21.75;8.08;;;;;;;31.61;47.24;99567.70;1809816;77;21024;-64
2021/07/16 08:55:46;;;;;;;19.87;7.10;;;;;;;31.76;47.25;99572.34;1802773;78;21005;-64
2021/07/16 08:58:14;;;;;;;23.92;8.33;;;;;;;31.86;47.19;99572.69;1812571;77;21009;-64
2021/07/16 09:00:41;;;;;;;14.30;7.22;;;;;;;31.89;47.07;99566.85;1804813;77;20969;-64
2021/07/16 09:03:13;;;;;;;16.75;6.83;;;;;;;31.75;46.78;99576.05;1800798;78;21345;-64
2021/07/16 09:05:42;;;;;;;23.12;7.35;;;;;;;31.74;47.15;99575.77;1808056;77;20926;-63
2021/07/16 09:08:22;;;;;;;17.02;7.28;;;;;;;31.88;46.38;99585.45;1816276;75;20962;-64
2021/07/16 09:10:55;;;;;;;24.12;7.20;;;;;;;31.59;46.84;99583.27;1811799;77;21020;-64
2021/07/16 09:13:23;;;;;;;15.65;7.50;;;;;;;31.35;47.64;99576.16;1796956;77;21107;-64
2021/07/16 09:15:53;;;;;;;17.12;7.53;;;;;;;31.23;47.55;99581.91;1817065;78;21071;-64
2021/07/16 09:18:28;;;;;;;14.43;7.08;;;;;;;31.03;47.80;99583.78;1824550;77;20923;-64
2021/07/16 09:21:03;;;;;;;18.50;8.18;;;;;;;30.73;47.99;99589.58;1815454;78;21024;-64
2021/07/16 09:23:40;;;;;;;17.90;7.53;;;;;;;30.20;48.38;99588.13;1821819;77;20951;-64
2021/07/16 09:26:13;;;;;;;44.70;9.30;;;;;;;30.02;49.51;99580.08;1817937;77;20987;-64
2021/07/16 09:28:46;;;;;;;15.78;7.75;;;;;;;30.23;49.26;99586.40;1816781;77;21063;-64
2021/07/16 09:31:25;;;;;;;18.90;8.10;;;;;;;30.38;49.35;99576.27;1815449;77;20967;-64
2021/07/16 09:34:03;;;;;;;16.65;8.05;;;;;;;30.40;49.42;99571.51;1814874;77;20965;-63
2021/07/16 09:36:34;;;;;;;18.82;8.15;;;;;;;30.57;49.26;99571.12;1822332;77;21064;-64
2021/07/16 09:39:16;;;;;;;17.87;7.42;;;;;;;30.60;49.62;99568.01;1815649;77;21518;-64
2021/07/16 09:41:57;;;;;;;12.78;7.05;;;;;;;30.76;49.06;99568.42;1783651;78;21187;-64
2021/07/16 09:44:45;;;;;;;14.47;7.42;;;;;;;30.90;49.13;99571.98;1814197;78;20965;-64
2021/07/16 09:47:18;;;;;;;19.45;7.12;;;;;;;31.14;49.07;99566.97;1807990;77;20978;-65
2021/07/16 09:49:50;;;;;;;12.10;6.80;;;;;;;31.47;49.49;99568.80;1814370;78;21604;-64
2021/07/16 09:52:21;;;;;;;16.00;7.70;;;;;;;31.74;48.04;99566.84;1802393;78;21496;-64
2021/07/16 09:55:12;;;;;;;20.92;7.72;;;;;;;31.58;48.71;99558.69;1816749;77;21616;-64
2021/07/16 09:57:43;;;;;;;20.57;6.97;;;;;;;31.71;48.70;99556.48;1810397;78;20919;-64
2021/07/16 10:00:20;;;;;;;13.58;7.33;;;;;;;31.78;48.60;99564.83;1815883;77;20966;-64
2021/07/16 10:03:03;;;;;;;12.23;6.83;;;;;;;31.94;48.18;99557.33;1811307;77;21531;-64
2021/07/16 10:05:25;;;;;;;17.35;7.40;;;;;;;31.99;48.14;99548.06;1785105;78;21005;-63
2021/07/16 10:07:58;;;;;;;14.90;7.65;;;;;;;31.87;47.24;99558.16;1665043;81;21536;-62
2021/07/16 10:10:25;;;;;;;15.83;6.95;;;;;;;31.18;47.67;99572.27;1669655;84;21093;-64
2021/07/16 10:12:54;;;;;;;18.55;7.37;;;;;;;30.54;47.79;99569.14;1658245;84;21586;-64
2021/07/16 10:15:32;;;;;;;23.38;7.90;;;;;;;30.17;48.14;99573.20;1651737;84;21013;-64
2021/07/16 10:18:00;;;;;;;17.55;8.63;;;;;;;29.95;48.19;99576.55;1659338;84;21607;-62
2021/07/16 10:20:32;;;;;;;23.57;7.62;;;;;;;29.77;48.64;99574.91;1663221;85;21328;-66
2021/07/16 10:22:56;;;;;;;12.35;6.95;;;;;;;29.98;48.84;99570.76;1658088;85;21085;-64
2021/07/16 10:25:24;;;;;;;20.17;6.97;;;;;;;29.97;48.82;99566.42;1658919;85;21043;-65
2021/07/16 10:27:52;;;;;;;13.45;7.08;;;;;;;30.09;48.97;99573.38;1657195;84;21541;-65
2021/07/16 10:30:25;;;;;;;24.10;6.97;;;;;;;30.20;48.68;99565.23;1659942;85;21085;-65
2021/07/16 10:35:37;;;;;;;16.40;6.93;;;;;;;30.34;47.23;99577.72;1782034;79;22614;-65
2021/07/16 10:38:31;;;;;;;21.27;7.12;;;;;;;30.22;48.82;99571.25;1750034;81;21042;-65
2021/07/16 10:41:33;;;;;;;18.17;6.87;;;;;;;29.70;50.13;99584.83;1812334;77;22023;-65
2021/07/16 10:44:00;;;;;;;12.82;6.85;;;;;;;29.54;50.41;99574.67;1779985;80;20935;-65
2021/07/16 10:46:31;;;;;;;;;;;;;;;29.64;51.32;99567.11;1787603;78;21875;-69
2021/07/16 10:48:59;;;;;;;12.82;6.90;;;;;;;29.64;52.48;99583.25;1776568;78;20113;-70
2021/07/16 10:51:29;;;;;;;9.10;6.17;;;;;;;29.50;52.41;99584.19;1742608;80;20988;-70
2021/07/16 10:53:59;;;;;;;15.58;7.78;;;;;;;29.42;52.92;99600.48;1753839;80;20965;-70
2021/07/16 10:56:44;;;;;;;18.77;7.67;;;;;;;29.25;53.46;99599.14;1752116;80;21006;-70
2021/07/16 10:59:32;;;;;;;20.08;6.80;;;;;;;29.21;53.09;99604.91;1737625;81;21721;-70
2021/07/16 11:01:59;;;;;;;17.17;7.50;;;;;;;29.28;53.57;99601.42;1711623;81;21020;-68
2021/07/16 11:04:30;;;;;;;;;;;;;;;29.44;53.66;99598.44;1750277;81;21543;-70
2021/07/16 11:08:40;;;;;;;12.77;7.33;;;;;;;29.53;53.61;99597.23;1837977;76;22810;-70
2021/07/16 11:11:24;;;;;;;17.60;7.55;;;;;;;29.50;53.80;99589.56;1806334;77;21576;-69
2021/07/16 11:13:58;;;;;;;16.65;7.00;;;;;;;29.75;53.74;99590.45;1808451;77;22510;-70
2021/07/16 11:16:34;;;;;;;18.07;7.62;;;;;;;29.91;53.62;99598.16;1803914;77;20970;-70
2021/07/16 11:19:09;;;;;;;14.87;6.78;;;;;;;29.82;53.65;99608.78;1806580;77;21558;-70
2021/07/16 11:21:52;;;;;;;22.05;7.37;;;;;;;29.83;53.72;99611.81;1808469;77;20954;-69
2021/07/16 11:24:23;;;;;;;14.68;6.67;;;;;;;29.95;53.60;99606.67;1821005;77;21663;-69
2021/07/16 11:27:05;;;;;;;14.43;7.28;;;;;;;29.79;53.49;99615.92;1806068;77;21135;-71
2021/07/16 11:29:45;;;;;;;13.95;7.33;;;;;;;29.61;54.06;99626.67;1748879;80;21626;-69
2021/07/16 11:32:30;;;;;;;15.70;7.62;;;;;;;29.37;53.95;99627.13;1748632;81;21495;-73
2021/07/16 11:35:06;;;;;;;19.30;8.00;;;;;;;29.12;55.61;99634.29;1768874;79;21077;-72
2021/07/16 11:37:44;;;;;;;11.65;7.20;;;;;;;28.74;55.39;99643.97;1796967;77;20977;-71
2021/07/16 11:40:28;;;;;;;15.80;6.80;;;;;;;28.37;57.42;99640.95;1775915;77;21097;-72
2021/07/16 11:42:58;;;;;;;17.27;7.05;;;;;;;28.10;56.67;99630.45;1797746;77;21006;-73